.
WxDataArchive / Data Records for 2006-10-04
2006-10-03 October 2006 2006-10-05

Data Records for Wednesday, 04 October 2006

Time	Temp	Chill	HIndex	Humid	Dewpt	 Wind 	HiWind	WindDir	Rain 	Barom 
-----	----	-----	------	-----	-----	------	------	-------	-----	----- 
00:00	71.3	71.3	71.3	79	64.4	1	3	270	0.00	29.975 
00:05	71.3	71.3	71.3	78	64.1	1	4	292	0.00	29.975 
00:10	71.1	71.1	71.1	79	64.2	1	9	248	0.00	29.975 
00:15	71.1	71.1	71.1	79	64.2	1	9	248	0.00	29.970 
00:20	71.3	71.3	71.3	79	64.4	1	3	248	0.00	29.970 
00:25	71.3	71.3	71.3	78	64.1	1	3	270	0.00	29.970 
00:30	71.3	71.3	71.3	79	64.4	1	3	270	0.00	29.967 
00:35	71.3	71.3	71.3	79	64.4	1	4	248	0.00	29.967 
00:40	71.5	71.5	71.5	79	64.6	2	5	270	0.00	29.967 
00:45	71.6	71.6	71.6	78	64.4	1	5	248	0.00	29.957 
00:50	71.6	71.6	71.6	78	64.4	1	4	270	0.00	29.957 
00:55	71.5	71.5	71.5	79	64.6	1	5	270	0.00	29.957 
01:00	71.5	71.5	71.5	79	64.6	2	4	270	0.00	29.954 
01:05	71.6	71.6	71.6	78	64.4	2	7	270	0.00	29.954 
01:10	71.6	71.6	71.6	78	64.4	2	5	270	0.00	29.954 
01:15	71.5	71.5	71.5	79	64.6	2	5	248	0.00	29.952 
01:20	71.5	71.5	71.5	79	64.6	2	5	248	0.00	29.952 
01:25	71.6	71.6	71.6	79	64.7	2	6	248	0.00	29.952 
01:30	71.6	71.6	71.6	79	64.7	2	5	248	0.00	29.951 
01:35	71.5	71.5	71.5	79	64.6	1	5	248	0.00	29.951 
01:40	71.5	71.5	71.5	80	65.0	2	4	248	0.00	29.951 
01:45	71.5	71.5	71.5	80	65.0	2	5	248	0.00	29.951 
01:50	71.6	71.6	71.6	79	64.7	1	3	270	0.00	29.951 
01:55	71.6	71.6	71.6	80	65.1	2	5	248	0.00	29.951 
02:00	71.5	71.5	71.5	80	65.0	2	5	248	0.00	29.952 
02:05	71.5	71.5	71.5	80	65.0	2	6	248	0.00	29.952 
02:10	71.6	71.6	71.6	80	65.1	1	5	248	0.00	29.952 
02:15	71.8	71.8	71.8	79	64.9	2	4	270	0.00	29.953 
02:20	71.6	71.6	71.6	79	64.7	2	5	248	0.00	29.953 
02:25	71.6	71.6	71.6	80	65.1	2	5	248	0.00	29.953 
02:30	71.6	71.6	71.6	80	65.1	2	7	270	0.00	29.952 
02:35	71.6	71.6	71.6	80	65.1	2	5	248	0.00	29.952 
02:40	71.5	71.5	71.5	80	65.0	2	5	248	0.00	29.952 
02:45	71.6	71.6	71.6	79	64.7	3	6	248	0.00	29.953 
02:50	71.8	71.8	71.8	79	64.9	2	4	248	0.00	29.953 
02:55	71.6	71.6	71.6	79	64.7	2	4	270	0.00	29.953 
03:00	71.5	71.5	71.5	80	65.0	2	6	248	0.00	29.953 
03:05	71.5	71.5	71.5	80	65.0	1	4	270	0.00	29.953 
03:10	71.3	71.3	71.3	80	64.8	1	5	248	0.00	29.953 
03:15	71.3	71.3	71.3	80	64.8	1	4	248	0.00	29.951 
03:20	71.3	71.3	71.3	80	64.8	1	3	248	0.00	29.951 
03:25	71.1	71.1	71.1	80	64.6	1	4	248	0.00	29.951 
03:30	71.3	71.3	71.3	80	64.8	2	6	248	0.00	29.947 
03:35	71.3	71.3	71.3	80	64.8	2	6	248	0.00	29.947 
03:40	71.3	71.3	71.3	80	64.8	2	6	248	0.00	29.947 
03:45	71.3	71.3	71.3	80	64.8	2	5	248	0.00	29.942 
03:50	71.3	71.3	71.3	80	64.8	1	3	270	0.00	29.942 
03:55	71.1	71.1	71.1	80	64.6	1	3	270	0.00	29.942 
04:00	70.9	70.9	70.9	81	64.8	1	3	248	0.00	29.939 
04:05	70.9	70.9	70.9	81	64.8	1	6	270	0.00	29.939 
04:10	71.1	71.1	71.1	80	64.6	1	4	270	0.00	29.939 
04:15	71.1	71.1	71.1	80	64.6	2	4	248	0.00	29.936 
04:20	71.1	71.1	71.1	80	64.6	1	5	270	0.00	29.936 
04:25	71.1	71.1	71.1	80	64.6	2	5	248	0.00	29.936 
04:30	71.3	71.3	71.3	80	64.8	2	6	248	0.00	29.931 
04:35	71.3	71.3	71.3	80	64.8	2	4	248	0.00	29.931 
04:40	71.1	71.1	71.1	80	64.6	2	5	248	0.00	29.931 
04:45	71.1	71.1	71.1	80	64.6	2	6	248	0.00	29.925 
04:50	71.1	71.1	71.1	80	64.6	2	7	248	0.00	29.925 
04:55	71.1	71.1	71.1	80	64.6	2	5	248	0.00	29.925 
05:00	71.1	71.1	71.1	80	64.6	2	5	248	0.00	29.921 
05:05	70.9	70.9	70.9	80	64.4	2	5	270	0.00	29.921 
05:10	71.1	71.1	71.1	80	64.6	3	7	270	0.00	29.921 
05:15	70.9	70.9	70.9	80	64.4	3	10	248	0.00	29.922 
05:20	70.9	70.9	70.9	80	64.4	2	5	248	0.00	29.922 
05:25	70.8	70.8	70.8	80	64.3	2	7	270	0.00	29.922 
05:30	70.6	70.6	70.6	81	64.5	2	6	248	0.00	29.918 
05:35	70.6	70.6	70.6	81	64.5	2	5	248	0.00	29.918 
05:40	70.6	70.6	70.6	81	64.5	2	6	248	0.00	29.918 
05:45	70.4	70.4	70.4	81	64.3	2	7	248	0.00	29.916 
05:50	70.4	70.4	70.4	81	64.3	2	5	248	0.00	29.916 
05:55	70.4	70.4	70.4	81	64.3	2	5	248	0.00	29.916 
06:00	70.3	70.3	70.3	81	64.2	2	5	248	0.00	29.909 
06:05	70.1	70.1	70.1	81	64.0	1	6	248	0.00	29.909 
06:10	69.9	69.9	69.9	82	64.1	2	4	248	0.00	29.909 
06:15	69.8	69.8	69.8	82	64.0	1	4	248	0.00	29.903 
06:20	69.4	69.4	69.4	83	64.0	1	3	248	0.00	29.903 
06:25	69.3	69.3	69.3	83	63.9	2	4	248	0.00	29.903 
06:30	69.3	69.3	69.3	83	63.9	2	7	248	0.00	29.890 
06:35	69.3	69.3	69.3	83	63.9	2	4	248	0.00	29.890 
06:40	69.3	69.3	69.3	83	63.9	2	5	248	0.00	29.890 
06:45	69.3	69.3	69.3	83	63.9	2	7	270	0.00	29.878 
06:50	69.3	69.3	69.3	83	63.9	2	4	248	0.00	29.878 
06:55	69.3	69.3	69.3	83	63.9	2	7	248	0.00	29.878 
07:00	69.3	69.3	69.3	83	63.9	2	5	248	0.00	29.876 
07:05	69.3	69.3	69.3	83	63.9	2	5	248	0.00	29.876 
07:10	69.1	69.1	69.1	83	63.7	2	5	270	0.00	29.876 
07:15	69.1	69.1	69.1	83	63.7	2	6	248	0.00	29.878 
07:20	68.9	68.9	68.9	83	63.5	2	5	248	0.00	29.878 
07:25	68.9	68.9	68.9	83	63.5	2	4	248	0.00	29.878 
07:30	69.1	69.1	69.1	83	63.7	2	7	248	0.00	29.880 
07:35	69.1	69.1	69.1	82	63.4	2	6	270	0.00	29.880 
07:40	69.3	69.3	69.3	82	63.6	2	5	248	0.00	29.880 
07:45	69.4	69.4	69.4	81	63.3	2	4	270	0.00	29.880 
07:50	69.6	69.6	69.6	81	63.5	2	6	248	0.00	29.880 
07:55	69.9	69.9	69.9	81	63.8	2	6	270	0.00	29.880 
08:00	70.3	70.3	70.3	80	63.8	3	6	270	0.00	29.880 
08:05	70.4	70.4	70.4	79	63.6	2	5	248	0.00	29.880 
08:10	70.6	70.6	70.6	79	63.8	2	6	248	0.00	29.880 
08:15	70.6	70.6	70.6	79	63.8	2	5	270	0.00	29.884 
08:20	70.6	70.6	70.6	79	63.8	2	4	248	0.00	29.884 
08:25	70.6	70.6	70.6	79	63.8	1	5	248	0.00	29.884 
08:30	70.6	70.6	70.6	79	63.8	2	5	248	0.00	29.893 
08:35	70.6	70.6	70.6	79	63.8	2	5	270	0.00	29.893 
08:40	70.6	70.6	70.6	79	63.8	2	5	248	0.00	29.893 
08:45	70.6	70.6	70.6	79	63.8	2	4	248	0.00	29.896 
08:50	70.8	70.8	70.8	79	64.0	2	4	270	0.00	29.896 
08:55	70.8	70.8	70.8	79	64.0	1	6	248	0.00	29.896 
09:00	70.8	70.8	70.8	79	64.0	2	6	270	0.00	29.895 
09:05	70.8	70.8	70.8	79	64.0	2	5	248	0.00	29.895 
09:10	70.9	70.9	70.9	79	64.1	2	4	248	0.00	29.895 
09:15	70.9	70.9	70.9	79	64.1	1	3	270	0.00	29.912 
09:20	70.8	70.8	70.8	79	64.0	1	3	315	0.00	29.912 
09:25	70.6	70.6	70.6	80	64.1	0	2	338	0.00	29.912 
09:30	70.6	70.6	70.6	79	63.8	0	1	338	0.00	29.932 
09:35	70.6	70.6	70.6	80	64.1	0	1	338	0.00	29.932 
09:40	70.6	70.6	70.6	80	64.1	0	2	315	0.00	29.932 
09:45	70.4	70.4	70.4	80	63.9	0	1	315	0.00	29.934 
09:50	70.4	70.4	70.4	80	63.9	0	1	315	0.00	29.934 
09:55	70.4	70.4	70.4	81	64.3	0	1	315	0.00	29.934 
10:00	70.3	70.3	70.3	81	64.2	0	1	315	0.00	29.945 
10:05	70.3	70.3	70.3	81	64.2	0	1	315	0.00	29.945 
10:10	70.1	70.1	70.1	83	64.7	0	1	315	0.00	29.945 
10:15	69.8	69.8	69.8	85	65.1	1	2	315	0.05	29.950 
10:20	69.1	69.1	69.1	87	65.1	2	5	248	0.03	29.950 
10:25	68.6	68.6	68.6	88	64.9	1	3	248	0.01	29.950 
10:30	68.3	68.3	68.3	90	65.2	1	3	248	0.01	29.962 
10:35	67.9	67.9	67.9	90	64.9	1	3	248	0.01	29.962 
10:40	67.8	67.8	67.8	91	65.1	0	1	248	0.01	29.962 
10:45	67.6	67.6	67.6	92	65.2	0	1	248	0.02	29.965 
10:50	67.6	67.6	67.6	92	65.2	0	1	248	0.00	29.965 
10:55	67.4	67.4	67.4	93	65.3	1	2	248	0.01	29.965 
11:00	67.4	67.4	67.4	93	65.3	0	2	248	0.00	29.966 
11:05	67.4	67.4	67.4	93	65.3	0	2	248	0.01	29.966 
11:10	67.4	67.4	67.4	93	65.3	1	4	248	0.00	29.966 
11:15	67.6	67.6	67.6	94	65.8	1	3	248	0.00	29.976 
11:20	67.9	67.9	67.9	93	65.8	1	3	270	0.00	29.976 
11:25	68.1	68.1	68.1	93	66.0	1	3	270	0.00	29.976 
11:30	68.1	68.1	68.1	93	66.0	1	3	248	0.00	29.988 
11:35	68.3	68.3	68.3	93	66.2	1	3	248	0.00	29.988 
11:40	68.4	68.4	68.4	93	66.3	1	6	248	0.00	29.988 
11:45	68.6	68.6	68.6	92	66.2	1	3	292	0.00	29.976 
11:50	68.9	68.9	68.9	92	66.5	0	2	292	0.00	29.976 
11:55	69.1	69.1	69.1	92	66.7	0	2	270	0.00	29.976 
12:00	69.1	69.1	69.1	91	66.4	0	1	270	0.00	29.945 
12:05	69.1	69.1	69.1	91	66.4	0	1	270	0.00	29.945 
12:10	69.1	69.1	69.1	91	66.4	0	1	270	0.00	29.945 
12:15	69.1	69.1	69.1	90	66.0	1	2	270	0.00	29.895 
12:20	69.3	69.3	69.3	91	66.6	0	1	270	0.00	29.895 
12:25	69.3	69.3	69.3	91	66.6	0	1	270	0.00	29.895 
12:30	69.3	69.3	69.3	91	66.6	0	0	---	0.00	29.912 
12:35	69.3	69.3	69.3	91	66.6	0	0	---	0.00	29.912 
12:40	69.4	69.4	69.4	92	67.0	0	1	270	0.00	29.912 
12:45	69.6	69.6	69.6	92	67.2	0	3	270	0.00	29.914 
12:50	69.9	69.9	69.9	92	67.5	0	1	270	0.00	29.914 
12:55	70.1	70.1	70.1	92	67.7	0	2	270	0.00	29.914 
13:00	70.3	70.3	70.3	91	67.5	0	2	270	0.00	29.933 
13:05	70.3	70.3	70.3	89	66.9	1	3	270	0.00	29.933 
13:10	70.3	70.3	70.3	89	66.9	1	3	292	0.00	29.933 
13:15	70.3	70.3	70.3	89	66.9	2	4	270	0.00	30.006 
13:20	70.3	70.3	70.3	88	66.6	2	3	292	0.00	30.006 
13:25	70.1	70.1	70.1	88	66.4	1	4	270	0.00	30.006 
13:30	70.1	70.1	70.1	88	66.4	1	3	270	0.00	29.990 
13:35	70.4	70.4	70.4	89	67.0	1	3	292	0.00	29.990 
13:40	70.6	70.6	70.6	88	66.9	1	2	292	0.00	29.990 
13:45	70.6	70.6	70.6	87	66.5	0	2	292	0.00	29.987 
13:50	70.6	70.6	70.6	87	66.5	0	2	292	0.00	29.987 
13:55	70.4	70.4	70.4	87	66.3	0	1	292	0.00	29.987 
14:00	70.6	70.6	70.6	87	66.5	0	0	---	0.00	29.966 
14:05	70.4	70.4	70.4	86	66.0	0	1	292	0.00	29.966 
14:10	70.4	70.4	70.4	88	66.7	0	1	292	0.00	29.966 
14:15	70.6	70.6	70.6	89	67.2	0	0	---	0.00	29.982 
14:20	70.4	70.4	70.4	87	66.3	0	1	292	0.00	29.982 
14:25	70.6	70.6	70.6	87	66.5	0	1	292	0.00	29.982 
14:30	70.6	70.6	70.6	86	66.2	0	2	292	0.00	29.989 
14:35	70.6	70.6	70.6	86	66.2	0	1	292	0.00	29.989 
14:40	70.6	70.6	70.6	86	66.2	0	1	292	0.00	29.989 
14:45	70.6	70.6	70.6	86	66.2	0	1	292	0.00	29.974 
14:50	70.8	70.8	70.8	86	66.4	0	1	292	0.01	29.974 
14:55	70.9	70.9	70.9	87	66.8	0	1	292	0.00	29.974 
15:00	71.1	71.1	71.1	80	64.6	0	2	292	0.00	29.975 
15:05	71.1	71.1	71.1	80	64.6	0	2	292	0.00	29.975 
15:10	70.9	70.9	70.9	81	64.8	0	1	292	0.00	29.975 
15:15	70.8	70.8	70.8	82	65.0	0	1	292	0.00	29.979 
15:20	70.1	70.1	70.1	84	65.0	0	1	292	0.01	29.979 
15:25	69.6	69.6	69.6	86	65.2	0	1	292	0.00	29.979 
15:30	69.1	69.1	69.1	88	65.4	0	1	292	0.01	29.980 
15:35	68.9	68.9	68.9	88	65.2	0	1	292	0.00	29.980 
15:40	68.9	68.9	68.9	89	65.5	0	0	---	0.00	29.980 
15:45	68.6	68.6	68.6	90	65.5	0	0	---	0.01	29.968 
15:50	68.6	68.6	68.6	91	65.9	0	0	---	0.00	29.968 
15:55	68.4	68.4	68.4	92	66.0	0	0	---	0.00	29.968 
16:00	68.4	68.4	68.4	92	66.0	0	0	---	0.00	29.977 
16:05	68.4	68.4	68.4	92	66.0	0	0	---	0.00	29.977 
16:10	68.4	68.4	68.4	93	66.3	0	0	---	0.00	29.977 
16:15	68.3	68.3	68.3	93	66.2	0	1	292	0.00	29.993 
16:20	67.9	67.9	67.9	92	65.5	0	1	292	0.00	29.993 
16:25	67.6	67.6	67.6	92	65.2	0	1	292	0.04	29.993 
16:30	67.6	67.6	67.6	93	65.5	0	1	292	0.04	29.979 
16:35	67.4	67.4	67.4	93	65.3	0	1	292	0.00	29.979 
16:40	67.4	67.4	67.4	93	65.3	0	1	292	0.00	29.979 
16:45	67.3	67.3	67.3	93	65.2	0	1	292	0.01	30.009 
16:50	67.3	67.3	67.3	94	65.5	0	1	292	0.00	30.009 
16:55	67.3	67.3	67.3	94	65.5	0	1	292	0.00	30.009 
17:00	67.4	67.4	67.4	94	65.6	0	1	292	0.00	30.011 
17:05	67.4	67.4	67.4	94	65.6	0	2	292	0.00	30.011 
17:10	67.1	67.1	67.1	94	65.3	0	2	45	0.00	30.011 
17:15	66.9	66.9	66.9	94	65.1	0	2	45	0.00	30.011 
17:20	66.8	66.8	66.8	93	64.7	0	2	202	0.00	30.011 
17:25	66.6	66.6	66.6	93	64.5	0	2	315	0.00	30.011 
17:30	66.6	66.6	66.6	93	64.5	0	2	315	0.00	30.021 
17:35	66.6	66.6	66.6	93	64.5	0	2	315	0.00	30.021 
17:40	66.6	66.6	66.6	92	64.2	0	1	315	0.00	30.021 
17:45	66.6	66.6	66.6	92	64.2	0	1	315	0.00	30.025 
17:50	66.4	66.4	66.4	92	64.0	0	1	292	0.00	30.025 
17:55	66.4	66.4	66.4	92	64.0	0	2	292	0.00	30.025 
18:00	66.4	66.4	66.4	92	64.0	0	1	315	0.00	30.013 
18:05	66.3	66.3	66.3	92	63.9	1	3	315	0.00	30.013 
18:10	66.3	66.3	66.3	92	63.9	0	1	315	0.00	30.013 
18:15	66.3	66.3	66.3	92	63.9	1	5	315	0.00	30.014 
18:20	66.1	66.1	66.1	92	63.7	1	4	292	0.00	30.014 
18:25	65.3	65.3	65.3	88	61.6	2	6	315	0.00	30.014 
18:30	64.2	64.2	64.2	87	60.2	1	5	338	0.00	30.029 
18:35	63.2	63.2	63.2	89	59.9	1	4	45	0.00	30.029 
18:40	62.6	62.6	62.6	90	59.6	1	4	315	0.00	30.029 
18:45	62.0	62.0	62.0	90	59.0	1	5	0	0.00	30.033 
18:50	61.8	61.8	61.8	90	58.8	1	6	68	0.00	30.033 
18:55	61.5	61.5	61.5	91	58.8	1	4	0	0.00	30.033 
19:00	61.3	61.3	61.3	91	58.6	1	3	90	0.00	30.038 
19:05	60.9	60.9	60.9	90	57.9	2	10	90	0.00	30.038 
19:10	60.4	60.4	60.4	89	57.1	1	6	112	0.00	30.038 
19:15	59.9	59.9	59.9	89	56.6	1	9	112	0.00	30.059 
19:20	59.6	59.6	59.6	88	56.0	2	9	90	0.00	30.059 
19:25	59.3	59.3	59.3	88	55.7	1	6	135	0.00	30.059 
19:30	59.0	59.0	59.0	88	55.4	1	5	45	0.00	30.068 
19:35	58.7	58.7	58.7	88	55.2	2	6	112	0.00	30.068 
19:40	58.6	58.6	58.6	88	55.1	0	2	338	0.00	30.068 
19:45	58.6	58.6	58.6	89	55.4	1	6	112	0.00	30.081 
19:50	58.4	58.4	58.4	89	55.2	1	6	135	0.00	30.081 
19:55	58.3	58.3	58.3	89	55.1	1	6	112	0.00	30.081 
20:00	58.1	58.1	58.1	89	54.9	2	5	112	0.00	30.081 
20:05	58.0	58.0	58.0	90	55.1	1	4	135	0.00	30.081 
20:10	57.8	57.8	57.8	89	54.6	1	5	0	0.00	30.081 
20:15	57.6	57.6	57.6	89	54.4	1	4	112	0.01	30.098 
20:20	57.5	57.5	57.5	90	54.6	1	5	135	0.00	30.098 
20:25	57.3	57.3	57.3	90	54.4	1	3	90	0.00	30.098 
20:30	57.2	57.2	57.2	90	54.3	2	5	90	0.00	30.085 
20:35	57.0	57.0	57.0	90	54.1	2	6	112	0.00	30.085 
20:40	56.9	56.9	56.9	91	54.3	2	6	112	0.00	30.085 
20:45	56.7	56.7	56.7	91	54.1	2	6	202	0.00	30.101 
20:50	56.6	56.6	56.6	91	54.0	1	5	45	0.00	30.101 
20:55	56.6	56.6	56.6	91	54.0	0	2	45	0.00	30.101 
21:00	56.5	56.5	56.5	91	53.9	1	3	270	0.00	30.112 
21:05	56.5	56.5	56.5	91	53.9	3	7	90	0.00	30.112 
21:10	56.5	56.5	56.5	90	53.6	2	10	22	0.00	30.112 
21:15	56.3	56.3	56.3	90	53.4	3	7	90	0.00	30.117 
21:20	56.3	56.3	56.3	89	53.1	3	10	90	0.00	30.117 
21:25	56.2	56.2	56.2	88	52.7	2	8	112	0.00	30.117 
21:30	56.0	56.0	56.0	88	52.5	3	10	112	0.00	30.124 
21:35	56.0	56.0	56.0	88	52.5	3	7	112	0.00	30.124 
21:40	55.9	55.9	55.9	88	52.4	3	7	112	0.00	30.124 
21:45	55.9	55.9	55.9	88	52.4	3	12	90	0.00	30.129 
21:50	55.7	55.7	55.7	88	52.2	4	10	90	0.00	30.129 
21:55	55.7	55.7	55.7	87	51.9	3	6	112	0.00	30.129 
22:00	55.6	55.6	55.6	87	51.8	3	6	90	0.00	30.134 
22:05	55.4	55.4	55.4	87	51.6	3	7	90	0.00	30.134 
22:10	55.3	55.3	55.3	86	51.2	3	9	112	0.00	30.134 
22:15	55.3	55.3	55.3	86	51.2	3	6	112	0.00	30.153 
22:20	55.1	55.1	55.1	86	51.0	3	10	112	0.00	30.153 
22:25	55.1	55.1	55.1	87	51.3	2	6	90	0.00	30.153 
22:30	55.0	55.0	55.0	86	50.9	3	6	90	0.00	30.168 
22:35	55.0	55.0	55.0	86	50.9	3	7	68	0.00	30.168 
22:40	54.8	54.8	54.8	85	50.4	3	10	112	0.00	30.168 
22:45	54.8	54.8	54.8	85	50.4	3	9	90	0.00	30.178 
22:50	54.7	54.7	54.7	84	50.0	4	11	112	0.00	30.178 
22:55	54.5	54.5	54.5	84	49.8	3	8	90	0.00	30.178 
23:00	54.5	54.5	54.5	84	49.8	4	12	90	0.00	30.172 
23:05	54.5	54.5	54.5	84	49.8	2	5	112	0.00	30.172 
23:10	54.4	54.4	54.4	84	49.7	2	7	90	0.00	30.172 
23:15	54.4	54.4	54.4	84	49.7	3	9	112	0.00	30.182 
23:20	54.4	54.4	54.4	84	49.7	2	6	112	0.00	30.182 
23:25	54.2	54.2	54.2	85	49.8	2	6	90	0.00	30.182 
23:30	54.2	54.2	54.2	85	49.8	2	6	112	0.00	30.179 
23:35	54.2	54.2	54.2	85	49.8	3	8	90	0.00	30.179 
23:40	54.1	54.1	54.1	85	49.7	5	12	90	0.00	30.179 
23:45	54.1	54.1	54.1	85	49.7	4	12	90	0.00	30.173 
23:50	53.9	53.9	53.9	85	49.5	4	10	90	0.00	30.173 
23:55	53.9	53.9	53.9	85	49.5	3	7	68	0.00	30.173 

CoCoRaHS
IN-AL-39
A2 Web Hosting
Creative Commons License
GoDaddy
Look for:

loaded 2017-10-17 22:12:54 • last modified 2010-11-18 10:43:29
Privacy PolicyDisclaimer
• wx.awcolley.com is powered by PmWiki v.2002016 •
• all content (unless otherwise noted) © 2017 A W Colley